Time;durP1;ratioP1;P1;durP2;ratioP2;P2;SDS_P1;SDS_P2;PMS_P1;PMS_P2;Temp;Humidity;BMP_temperature;BMP_pressure;BME280_temperature;BME280_humidity;BME280_pressure;Samples;Min_cycle;Max_cycle;Signal;HPM_P1;HPM_P2
2023/07/08 00:01:38;;;;;;;7.07;3.13;;;;;;;15.87;100.00;102000.53;10479516;28;20032;-67
2023/07/08 00:06:39;;;;;;;5.75;2.92;;;;;;;15.81;100.00;101982.97;10463519;28;20102;-68
2023/07/08 00:11:39;;;;;;;7.20;3.03;;;;;;;15.48;100.00;101940.44;10480210;28;20037;-68
2023/07/08 00:16:40;;;;;;;5.35;3.10;;;;;;;15.68;100.00;101980.59;10496263;28;20045;-68
2023/07/08 00:21:40;;;;;;;6.63;3.25;;;;;;;15.74;100.00;101990.69;10480396;28;20102;-68
2023/07/08 00:26:41;;;;;;;4.90;3.10;;;;;;;15.71;100.00;101980.94;10499273;28;20029;-68
2023/07/08 00:31:41;;;;;;;8.07;3.55;;;;;;;15.66;100.00;101980.03;10428309;28;20052;-68
2023/07/08 00:36:42;;;;;;;5.60;3.45;;;;;;;15.61;100.00;101978.03;10470282;28;20578;-66
2023/07/08 00:41:42;;;;;;;5.50;3.55;;;;;;;15.53;100.00;101979.34;10487690;28;20044;-68
2023/07/08 00:47:09;;;;;;;7.40;3.85;;;;;;;15.53;100.00;101987.66;10487324;28;20037;-68
2023/07/08 00:52:26;;;;;;;7.55;3.50;;;;;;;15.49;100.00;101980.97;10483635;28;20033;-68
2023/07/08 00:57:29;;;;;;;7.32;3.63;;;;;;;15.46;100.00;101987.03;10505344;28;20036;-68
2023/07/08 01:02:29;;;;;;;7.28;3.45;;;;;;;15.40;100.00;101979.75;10503996;28;20040;-68
2023/07/08 01:07:30;;;;;;;7.60;4.30;;;;;;;15.29;100.00;101972.41;10469837;28;20051;-67
2023/07/08 01:12:33;;;;;;;7.38;3.30;;;;;;;15.29;100.00;101964.06;10470380;28;20036;-67
2023/07/08 01:17:33;;;;;;;6.90;3.35;;;;;;;15.24;100.00;101975.13;10485854;28;20042;-67
2023/07/08 01:22:37;;;;;;;6.65;4.15;;;;;;;15.19;100.00;101959.22;10487991;28;20056;-67
2023/07/08 01:27:39;;;;;;;9.60;3.83;;;;;;;15.16;100.00;101964.50;10486632;28;20032;-67
2023/07/08 01:32:45;;;;;;;7.03;4.03;;;;;;;15.10;100.00;101967.19;10470942;28;20041;-67
2023/07/08 01:37:53;;;;;;;10.43;3.92;;;;;;;15.05;100.00;101961.59;10486952;28;20096;-67
2023/07/08 01:42:54;;;;;;;6.80;3.60;;;;;;;15.00;100.00;101953.19;10468569;28;20041;-68
2023/07/08 01:47:59;;;;;;;5.20;3.63;;;;;;;14.93;100.00;101941.47;10502926;28;20101;-68
2023/07/08 01:53:00;;;;;;;9.40;4.38;;;;;;;14.89;100.00;101935.59;10486392;28;20047;-68
2023/07/08 01:58:00;;;;;;;6.40;4.05;;;;;;;14.84;100.00;101943.00;10485039;28;20048;-67
2023/07/08 02:03:01;;;;;;;9.20;4.13;;;;;;;14.78;100.00;101935.69;10466564;28;20066;-67
2023/07/08 02:08:01;;;;;;;7.78;4.20;;;;;;;14.73;100.00;101925.38;10484912;28;20036;-67
2023/07/08 02:13:02;;;;;;;8.50;4.15;;;;;;;14.67;100.00;101923.63;10501240;28;20045;-68
2023/07/08 02:18:02;;;;;;;6.47;4.18;;;;;;;14.63;100.00;101922.47;10466235;28;20535;-68
2023/07/08 02:23:03;;;;;;;6.05;4.03;;;;;;;14.60;100.00;101923.00;10482135;28;20056;-67
2023/07/08 02:28:03;;;;;;;7.30;4.53;;;;;;;14.57;100.00;101918.78;10499828;28;20037;-68
2023/07/08 02:33:04;;;;;;;7.75;4.47;;;;;;;14.54;100.00;101909.03;10481818;28;20078;-68
2023/07/08 02:38:04;;;;;;;4.78;3.88;;;;;;;14.52;100.00;101902.91;10498731;28;20385;-67
2023/07/08 02:43:05;;;;;;;7.90;4.75;;;;;;;14.50;100.00;101898.72;10499303;28;20047;-67
2023/07/08 02:48:05;;;;;;;8.55;4.88;;;;;;;14.49;100.00;101894.25;10500262;28;20032;-67
2023/07/08 02:53:06;;;;;;;7.85;4.75;;;;;;;14.48;100.00;101881.50;10482583;28;20038;-67
2023/07/08 02:58:06;;;;;;;10.80;5.25;;;;;;;14.47;100.00;101883.44;10472527;28;20037;-67
2023/07/08 03:03:07;;;;;;;7.35;4.57;;;;;;;14.45;100.00;101887.53;10438962;28;20103;-67
2023/07/08 03:08:07;;;;;;;8.60;5.75;;;;;;;14.42;100.00;101888.06;10456119;28;20037;-68
2023/07/08 03:13:08;;;;;;;8.98;4.65;;;;;;;14.39;100.00;101891.38;10472385;28;20032;-67
2023/07/08 03:18:08;;;;;;;7.30;4.93;;;;;;;14.36;100.00;101892.69;10498091;28;20040;-68
2023/07/08 03:23:09;;;;;;;10.20;5.63;;;;;;;14.37;100.00;101899.09;10480674;28;20044;-67
2023/07/08 03:28:13;;;;;;;14.60;6.25;;;;;;;14.35;100.00;101885.50;10496667;28;20051;-68
2023/07/08 03:33:14;;;;;;;7.05;4.80;;;;;;;14.29;100.00;101876.25;10479377;28;20036;-68
2023/07/08 03:38:14;;;;;;;11.13;5.90;;;;;;;14.37;100.00;101876.94;10444677;28;20473;-68
2023/07/08 03:43:15;;;;;;;9.98;5.28;;;;;;;14.41;100.00;101875.34;10496407;28;20446;-67
2023/07/08 03:48:15;;;;;;;11.40;5.70;;;;;;;14.44;100.00;101874.81;10478442;28;20037;-67
2023/07/08 03:53:16;;;;;;;11.27;6.38;;;;;;;14.47;100.00;101879.81;10496750;28;20032;-67
2023/07/08 03:58:16;;;;;;;14.13;5.93;;;;;;;14.48;100.00;101874.03;10496569;28;20047;-67
2023/07/08 04:03:16;;;;;;;9.07;5.55;;;;;;;14.49;100.00;101870.19;10496472;28;20029;-67
2023/07/08 04:08:17;;;;;;;8.70;6.20;;;;;;;14.53;100.00;101870.47;10495193;28;20037;-68
2023/07/08 04:13:17;;;;;;;9.95;5.25;;;;;;;14.55;100.00;101868.28;10497801;28;20104;-67
2023/07/08 04:18:18;;;;;;;9.25;6.03;;;;;;;14.57;100.00;101865.31;10455314;28;20061;-66
2023/07/08 04:23:19;;;;;;;9.82;5.32;;;;;;;14.64;100.00;101877.06;10454968;28;20772;-66
2023/07/08 04:28:19;;;;;;;7.00;5.32;;;;;;;14.70;100.00;101874.09;10447914;28;20060;-67
2023/07/08 04:33:20;;;;;;;11.20;6.40;;;;;;;14.67;100.00;101866.25;10456719;28;20036;-67
2023/07/08 04:38:23;;;;;;;9.18;5.72;;;;;;;14.80;100.00;101872.50;10453591;28;20071;-67
2023/07/08 04:43:28;;;;;;;7.97;5.82;;;;;;;14.86;100.00;101882.56;10436736;28;20057;-66
2023/07/08 04:48:29;;;;;;;8.30;5.35;;;;;;;14.90;100.00;101883.72;10450437;28;20046;-66
2023/07/08 04:53:29;;;;;;;12.18;6.90;;;;;;;15.00;100.00;101886.63;10453341;28;20651;-66
2023/07/08 04:58:30;;;;;;;9.95;4.95;;;;;;;15.05;100.00;101883.09;10451419;28;20056;-67
2023/07/08 05:03:30;;;;;;;12.38;6.07;;;;;;;15.10;100.00;101883.97;10451677;28;20045;-66
2023/07/08 05:08:31;;;;;;;9.43;6.28;;;;;;;15.11;100.00;101863.47;10451006;28;20083;-66
2023/07/08 05:13:31;;;;;;;7.78;5.65;;;;;;;15.28;100.00;101873.63;10452899;28;20041;-67
2023/07/08 05:18:32;;;;;;;8.77;5.47;;;;;;;15.36;100.00;101869.53;10453220;28;20041;-66
2023/07/08 05:23:32;;;;;;;6.70;4.95;;;;;;;15.48;100.00;101884.94;10459722;28;20033;-67
2023/07/08 05:28:33;;;;;;;8.27;5.43;;;;;;;15.52;100.00;101877.75;10442649;28;20073;-66
2023/07/08 05:33:34;;;;;;;9.35;5.25;;;;;;;15.71;100.00;101877.38;10459898;28;20037;-67
2023/07/08 05:38:34;;;;;;;6.25;4.53;;;;;;;15.86;100.00;101880.31;10432960;28;20520;-67
2023/07/08 05:43:35;;;;;;;7.97;5.00;;;;;;;16.02;100.00;101872.06;10460523;28;20041;-67
2023/07/08 05:48:36;;;;;;;6.75;5.05;;;;;;;16.16;100.00;101862.16;10459448;28;20060;-67
2023/07/08 05:53:36;;;;;;;6.70;5.18;;;;;;;16.41;100.00;101857.88;10442649;28;20035;-66
2023/07/08 05:58:36;;;;;;;9.55;5.50;;;;;;;16.66;100.00;101860.78;10461142;28;20029;-67
2023/07/08 06:03:37;;;;;;;5.78;4.38;;;;;;;17.01;100.00;101853.72;10461645;28;20025;-67
2023/07/08 06:08:38;;;;;;;7.57;4.38;;;;;;;17.39;100.00;101846.00;10458489;28;20044;-67
2023/07/08 06:13:38;;;;;;;9.57;4.00;;;;;;;17.82;100.00;101849.34;10459377;28;20052;-66
2023/07/08 06:18:39;;;;;;;7.38;4.30;;;;;;;18.23;100.00;101834.53;10460213;28;20430;-67
2023/07/08 06:23:39;;;;;;;9.20;4.50;;;;;;;18.57;100.00;101826.34;10461884;28;20465;-67
2023/07/08 06:28:39;;;;;;;5.10;3.35;;;;;;;18.95;100.00;101829.53;10428790;28;20425;-67
2023/07/08 06:33:40;;;;;;;10.38;3.95;;;;;;;19.13;100.00;101806.53;10418677;28;20052;-67
2023/07/08 06:38:40;;;;;;;5.32;3.55;;;;;;;19.42;100.00;101814.13;10417154;28;20481;-66
2023/07/08 06:43:41;;;;;;;7.65;3.72;;;;;;;19.80;100.00;101821.94;10442663;28;20500;-68
2023/07/08 06:48:41;;;;;;;6.35;4.78;;;;;;;20.10;100.00;101823.63;10458451;28;20512;-67
2023/07/08 06:53:42;;;;;;;6.82;3.53;;;;;;;20.38;100.00;101815.47;10457286;28;20485;-67
2023/07/08 06:58:42;;;;;;;4.97;3.00;;;;;;;20.63;100.00;101829.19;10458742;28;20048;-67
2023/07/08 07:03:43;;;;;;;5.60;3.47;;;;;;;20.93;100.00;101818.69;10457164;28;20033;-67
2023/07/08 07:08:44;;;;;;;5.55;3.40;;;;;;;21.20;100.00;101805.97;10440381;28;20102;-67
2023/07/08 07:13:44;;;;;;;5.53;3.17;;;;;;;21.42;100.00;101808.16;10457262;28;20041;-66
2023/07/08 07:18:45;;;;;;;6.20;3.00;;;;;;;21.74;100.00;101804.53;10457928;28;20055;-66
2023/07/08 07:23:45;;;;;;;8.02;2.50;;;;;;;22.06;100.00;101800.06;10455762;28;20036;-66
2023/07/08 07:28:45;;;;;;;3.63;2.63;;;;;;;22.39;100.00;101792.41;10456567;28;20048;-67
2023/07/08 07:33:46;;;;;;;3.55;2.38;;;;;;;22.58;100.00;101788.66;10455734;28;20087;-67
2023/07/08 07:38:46;;;;;;;4.72;2.30;;;;;;;22.76;100.00;101791.31;10456209;28;20048;-67
2023/07/08 07:43:47;;;;;;;4.22;2.25;;;;;;;22.97;100.00;101783.25;10455326;28;20036;-67
2023/07/08 07:48:47;;;;;;;4.43;2.75;;;;;;;23.21;100.00;101772.91;10456647;28;20044;-67
2023/07/08 07:53:48;;;;;;;3.55;2.55;;;;;;;23.52;100.00;101768.19;10462032;28;20041;-67
2023/07/08 07:58:48;;;;;;;6.40;2.50;;;;;;;23.77;100.00;101752.63;10455225;28;20052;-67
2023/07/08 08:03:52;;;;;;;4.00;2.63;;;;;;;24.00;100.00;101755.41;10454700;28;20045;-67
2023/07/08 08:08:53;;;;;;;4.25;2.25;;;;;;;24.18;100.00;101761.91;10451773;28;20048;-66
2023/07/08 08:13:53;;;;;;;3.75;2.30;;;;;;;24.26;100.00;101757.47;10454175;28;20075;-67
2023/07/08 08:18:54;;;;;;;5.32;2.47;;;;;;;24.42;100.00;101757.84;10496190;28;20055;-67
2023/07/08 08:23:54;;;;;;;3.40;2.65;;;;;;;24.38;100.00;101727.53;10493618;28;20029;-66
2023/07/08 08:28:55;;;;;;;3.80;2.45;;;;;;;24.87;100.00;101768.88;10494890;28;20041;-68
2023/07/08 08:33:55;;;;;;;5.38;2.10;;;;;;;25.11;100.00;101759.91;10493864;28;20041;-67
2023/07/08 08:38:56;;;;;;;4.35;2.38;;;;;;;25.39;100.00;101757.63;10441906;28;20053;-68
2023/07/08 08:43:57;;;;;;;3.53;2.10;;;;;;;25.65;100.00;101751.06;10436026;28;20044;-67
2023/07/08 08:49:09;;;;;;;2.53;1.90;;;;;;;25.99;99.32;101755.00;10436481;28;20029;-67
2023/07/08 08:54:09;;;;;;;4.90;3.05;;;;;;;26.22;96.90;101741.44;10402219;28;20045;-68
2023/07/08 08:59:28;;;;;;;4.38;2.38;;;;;;;26.47;95.03;101750.91;10441219;28;20037;-68
2023/07/08 09:04:32;;;;;;;6.13;2.83;;;;;;;26.62;95.47;101741.84;10444093;28;20033;-67
2023/07/08 09:09:37;;;;;;;4.50;2.03;;;;;;;26.87;92.60;101730.69;10439406;28;20091;-68
2023/07/08 09:14:41;;;;;;;3.38;2.28;;;;;;;26.92;91.06;101722.03;10443556;28;20035;-67
2023/07/08 09:19:53;;;;;;;5.63;2.60;;;;;;;27.11;88.68;101716.69;10443868;28;20041;-68
2023/07/08 09:25:23;;;;;;;3.90;1.88;;;;;;;27.39;86.58;101716.13;10441548;28;20033;-68
2023/07/08 09:30:24;;;;;;;5.25;2.05;;;;;;;27.70;89.29;101729.75;10431656;28;20493;-68
2023/07/08 09:35:27;;;;;;;2.97;2.22;;;;;;;27.92;85.32;101717.16;10424979;28;20060;-67
2023/07/08 09:40:32;;;;;;;3.35;2.03;;;;;;;28.03;83.95;101708.22;10438784;28;20049;-68
2023/07/08 09:45:40;;;;;;;3.50;2.45;;;;;;;28.24;83.14;101706.09;10459420;28;20056;-68
2023/07/08 09:50:43;;;;;;;4.07;2.20;;;;;;;28.38;81.60;101700.88;10441984;28;20108;-67
2023/07/08 09:55:44;;;;;;;6.05;2.10;;;;;;;28.52;79.97;101705.34;10416439;28;20049;-68
2023/07/08 10:00:44;;;;;;;5.35;2.50;;;;;;;28.85;78.88;101710.00;10401367;28;20034;-67
2023/07/08 10:05:46;;;;;;;5.85;2.38;;;;;;;29.00;79.94;101714.88;10394998;28;20040;-67
2023/07/08 10:10:48;;;;;;;5.28;2.35;;;;;;;29.09;78.44;101715.56;10422869;28;20028;-67
2023/07/08 10:16:12;;;;;;;4.05;2.63;;;;;;;29.31;77.39;101721.84;10391615;28;20041;-67
2023/07/08 10:21:32;;;;;;;4.40;2.65;;;;;;;29.50;77.68;101710.66;10442409;28;20079;-67
2023/07/08 10:26:34;;;;;;;4.47;2.35;;;;;;;29.61;75.94;101704.44;10441001;28;20052;-67
2023/07/08 10:31:48;;;;;;;6.30;2.60;;;;;;;29.81;76.80;101709.06;10404695;28;20453;-67
2023/07/08 10:37:14;;;;;;;4.32;2.05;;;;;;;29.86;74.71;101688.91;10424443;28;20043;-70
2023/07/08 10:42:22;;;;;;;4.10;2.60;;;;;;;29.81;75.92;101702.53;10427491;28;20037;-73
2023/07/08 10:47:32;;;;;;;6.43;2.40;;;;;;;29.69;75.42;101707.09;10424960;28;20037;-73
2023/07/08 10:52:51;;;;;;;3.20;2.40;;;;;;;29.83;74.84;101705.84;10439131;28;20056;-68
2023/07/08 10:58:16;;;;;;;4.20;3.03;;;;;;;29.99;74.97;101698.13;10438380;28;20045;-72
2023/07/08 11:03:38;;;;;;;4.55;2.42;;;;;;;30.20;73.64;101686.47;10455348;28;20059;-71
2023/07/08 11:08:44;;;;;;;3.92;2.63;;;;;;;30.47;72.20;101683.84;10450431;28;20475;-72
2023/07/08 11:13:49;;;;;;;;;;;;;;;30.45;69.83;101667.19;10423483;28;20460;-72
2023/07/08 11:19:02;;;;;;;4.43;2.40;;;;;;;30.58;70.42;101676.41;10415933;28;19925;-71
2023/07/08 11:24:07;;;;;;;4.20;2.90;;;;;;;30.69;66.58;101646.19;10453181;28;20071;-69
2023/07/08 11:29:22;;;;;;;2.63;2.17;;;;;;;30.84;67.12;101653.00;10420119;28;20041;-70
2023/07/08 11:34:23;;;;;;;5.13;2.60;;;;;;;31.11;67.72;101661.66;10408499;28;20087;-70
2023/07/08 11:39:27;;;;;;;4.63;3.08;;;;;;;31.32;68.36;101658.44;10437677;28;20095;-69
2023/07/08 11:44:27;;;;;;;3.92;2.78;;;;;;;31.42;65.48;101643.56;10450971;28;20102;-69
2023/07/08 11:49:28;;;;;;;3.47;2.58;;;;;;;31.86;64.23;101634.56;10437865;28;20029;-70
2023/07/08 11:54:30;;;;;;;5.50;2.72;;;;;;;32.34;63.87;101623.47;10419626;28;20049;-75
2023/07/08 11:59:32;;;;;;;5.15;2.70;;;;;;;32.60;60.64;101615.28;10420511;28;20043;-76
2023/07/08 12:04:35;;;;;;;3.70;2.53;;;;;;;32.77;58.22;101604.09;10403305;28;20100;-77
2023/07/08 12:09:45;;;;;;;4.63;2.53;;;;;;;33.35;60.14;101616.94;10420914;28;20029;-77
2023/07/08 12:14:46;;;;;;;5.28;3.45;;;;;;;33.43;56.45;101569.31;10399813;28;20049;-78
2023/07/08 12:19:46;;;;;;;5.25;3.25;;;;;;;33.84;55.37;101597.78;10420449;28;20045;-69
2023/07/08 12:24:47;;;;;;;3.83;3.13;;;;;;;33.92;55.57;101599.47;10437234;28;20037;-74
2023/07/08 12:29:47;;;;;;;6.63;2.97;;;;;;;34.32;55.05;101599.72;10420065;28;20052;-76
2023/07/08 12:34:48;;;;;;;3.22;2.67;;;;;;;34.36;52.54;101583.41;10444369;28;20452;-75
2023/07/08 12:39:56;;;;;;;3.80;2.63;;;;;;;34.74;53.09;101592.53;10411350;28;20048;-75
2023/07/08 12:44:57;;;;;;;4.38;3.30;;;;;;;34.68;50.95;101586.38;10409335;28;20051;-77
2023/07/08 12:49:57;;;;;;;6.10;3.20;;;;;;;35.21;53.28;101590.63;10394421;28;20042;-80
2023/07/08 12:54:57;;;;;;;5.07;3.83;;;;;;;35.60;52.92;101580.38;10462239;28;20044;-67
2023/07/08 12:59:58;;;;;;;4.25;3.25;;;;;;;35.45;50.52;101568.91;10462360;28;20032;-70
2023/07/08 13:05:00;;;;;;;5.13;3.28;;;;;;;35.07;49.96;101571.34;10443659;28;20075;-71
2023/07/08 13:10:00;;;;;;;3.80;3.00;;;;;;;35.41;50.99;101548.09;10411987;28;20040;-71
2023/07/08 13:15:01;;;;;;;4.18;3.63;;;;;;;35.44;50.64;101547.25;10440428;28;20517;-72
2023/07/08 13:20:02;;;;;;;4.15;3.63;;;;;;;35.62;50.13;101580.78;10425250;28;20037;-74
2023/07/08 13:25:02;;;;;;;4.35;3.92;;;;;;;35.94;51.05;101584.44;10426315;28;20044;-69
2023/07/08 13:30:21;;;;;;;5.03;3.95;;;;;;;36.40;49.59;101582.66;10459363;28;20048;-69
2023/07/08 13:35:38;;;;;;;4.63;3.67;;;;;;;36.42;48.28;101562.19;10423834;28;20059;-68
2023/07/08 13:40:41;;;;;;;4.90;3.45;;;;;;;36.19;47.86;101566.38;10425846;28;20121;-71
2023/07/08 13:45:47;;;;;;;7.72;3.60;;;;;;;36.59;47.45;101567.03;10425955;28;20083;-75
2023/07/08 13:51:08;;;;;;;4.97;3.75;;;;;;;36.80;44.47;101548.03;10422898;28;20033;-68
2023/07/08 13:56:32;;;;;;;4.97;3.80;;;;;;;37.47;44.97;101552.44;10458977;28;20037;-69
2023/07/08 14:01:35;;;;;;;5.80;4.30;;;;;;;37.88;44.32;101556.59;10428323;28;20087;-68
2023/07/08 14:06:37;;;;;;;4.15;3.75;;;;;;;38.25;42.76;101550.00;10440549;28;20037;-74
2023/07/08 14:11:37;;;;;;;6.85;4.30;;;;;;;37.92;41.56;101543.81;10423591;28;20048;-70
2023/07/08 14:16:43;;;;;;;6.82;4.35;;;;;;;38.20;41.19;101547.59;10457864;28;20437;-66
2023/07/08 14:21:44;;;;;;;7.40;4.50;;;;;;;38.46;39.79;101530.84;10458713;28;20037;-67
2023/07/08 14:26:44;;;;;;;6.75;4.80;;;;;;;38.27;39.09;101547.50;10422775;28;20045;-75
2023/07/08 14:31:45;;;;;;;6.82;4.47;;;;;;;38.15;38.50;101536.59;10443030;28;20037;-75
2023/07/08 14:36:45;;;;;;;6.55;4.20;;;;;;;38.59;39.17;101552.03;10420230;28;20033;-70
2023/07/08 14:41:47;;;;;;;7.35;4.55;;;;;;;39.26;35.84;101537.84;10456711;28;20029;-69
2023/07/08 14:46:47;;;;;;;6.07;4.97;;;;;;;39.54;35.35;101530.75;10430445;28;20187;-72
2023/07/08 14:51:48;;;;;;;6.85;4.82;;;;;;;39.93;35.96;101523.44;10432718;28;20110;-70
2023/07/08 14:56:49;;;;;;;5.80;4.68;;;;;;;39.54;35.28;101527.88;10435146;28;20041;-71
2023/07/08 15:01:50;;;;;;;7.45;4.80;;;;;;;39.05;35.60;101532.44;10424152;28;21001;-76
2023/07/08 15:06:50;;;;;;;4.93;4.43;;;;;;;39.45;36.64;101538.38;10415485;28;20045;-73
2023/07/08 15:11:51;;;;;;;5.38;4.78;;;;;;;39.86;35.99;101535.13;10432640;28;20044;-71
2023/07/08 15:16:52;;;;;;;6.32;4.25;;;;;;;40.11;36.23;101528.84;10452143;28;20464;-71
2023/07/08 15:21:52;;;;;;;6.60;5.20;;;;;;;39.83;35.35;101521.56;10453988;28;20118;-71
2023/07/08 15:26:53;;;;;;;5.53;4.90;;;;;;;39.64;36.82;101528.13;10436728;28;20052;-72
2023/07/08 15:31:53;;;;;;;6.35;5.05;;;;;;;39.75;34.46;101522.94;10434312;28;20029;-73
2023/07/08 15:36:54;;;;;;;6.38;4.68;;;;;;;39.95;35.19;101515.16;10413886;28;20065;-74
2023/07/08 15:41:54;;;;;;;5.55;4.28;;;;;;;39.92;35.06;101516.06;10418646;28;20071;-72
2023/07/08 15:46:55;;;;;;;6.15;5.03;;;;;;;39.99;34.46;101515.09;10435893;28;20075;-72
2023/07/08 15:51:56;;;;;;;8.07;4.53;;;;;;;40.21;34.32;101520.38;10430802;28;20037;-76
2023/07/08 15:56:56;;;;;;;6.18;4.80;;;;;;;40.55;34.44;101517.97;10384793;28;20110;-70
2023/07/08 16:02:01;;;;;;;5.60;4.72;;;;;;;40.47;33.91;101504.19;10417892;28;20040;-72
2023/07/08 16:07:01;;;;;;;6.18;4.78;;;;;;;40.23;33.35;101498.50;10398473;28;20046;-74
2023/07/08 16:12:04;;;;;;;6.30;4.53;;;;;;;40.52;33.73;101495.81;10396654;28;20070;-72
2023/07/08 16:17:09;;;;;;;5.47;4.53;;;;;;;40.60;32.86;101496.47;10420523;28;20084;-75
2023/07/08 16:22:10;;;;;;;6.65;4.85;;;;;;;40.08;32.29;101485.66;10422254;28;20514;-72
2023/07/08 16:27:10;;;;;;;5.50;4.75;;;;;;;40.21;33.52;101498.16;10421193;28;20041;-71
2023/07/08 16:32:11;;;;;;;7.25;4.82;;;;;;;40.10;33.32;101501.25;10414888;28;20079;-70
2023/07/08 16:37:12;;;;;;;8.02;5.13;;;;;;;39.47;34.03;101464.66;10419164;28;20039;-73
2023/07/08 16:42:14;;;;;;;5.78;4.57;;;;;;;39.54;34.17;101501.94;10435872;28;20537;-78
2023/07/08 16:47:14;;;;;;;6.53;4.72;;;;;;;38.65;35.04;101503.44;10436121;28;20037;-75
2023/07/08 16:52:15;;;;;;;5.57;4.85;;;;;;;37.65;37.16;101509.22;10420453;28;20033;-79
2023/07/08 16:57:16;;;;;;;5.35;4.45;;;;;;;36.56;37.63;101504.75;10419097;28;20535;-77
2023/07/08 17:02:16;;;;;;;8.45;4.80;;;;;;;34.89;39.16;101508.38;10430239;28;20033;-72
2023/07/08 17:07:17;;;;;;;6.22;4.28;;;;;;;34.05;40.72;101511.38;10410527;28;20033;-71
2023/07/08 17:12:17;;;;;;;6.20;4.82;;;;;;;33.44;44.87;101528.13;10396819;28;20503;-71
2023/07/08 17:17:18;;;;;;;6.50;4.07;;;;;;;32.84;45.69;101534.91;10416585;28;20060;-69
2023/07/08 17:22:19;;;;;;;5.32;3.90;;;;;;;32.29;46.41;101532.66;10413064;28;20118;-80
2023/07/08 17:27:19;;;;;;;6.43;4.50;;;;;;;31.80;46.75;101533.59;10443436;28;20546;-79
2023/07/08 17:32:20;;;;;;;6.60;4.40;;;;;;;31.51;47.52;101527.47;10409529;28;20428;-83
2023/07/08 17:37:21;;;;;;;6.55;4.38;;;;;;;31.47;48.59;101528.63;10440827;28;20044;-70
2023/07/08 17:42:21;;;;;;;6.95;4.28;;;;;;;31.36;49.34;101531.28;10441757;28;20091;-81
2023/07/08 17:47:22;;;;;;;7.15;3.95;;;;;;;31.05;51.52;101526.66;10441966;28;20526;-74
2023/07/08 17:52:22;;;;;;;5.32;4.05;;;;;;;30.79;52.04;101542.44;10442413;28;20045;-71
2023/07/08 17:57:23;;;;;;;9.45;5.97;;;;;;;30.43;54.87;101541.75;10446746;28;20041;-77
2023/07/08 18:02:24;;;;;;;6.85;3.92;;;;;;;30.12;56.66;101543.50;10418176;28;20067;-68
2023/07/08 18:07:26;;;;;;;4.97;3.75;;;;;;;29.85;55.98;101545.34;10459157;28;20830;-73
2023/07/08 18:12:26;;;;;;;4.97;3.72;;;;;;;29.66;56.53;101553.78;10458883;28;20105;-70
2023/07/08 18:17:27;;;;;;;8.15;4.65;;;;;;;29.53;56.80;101551.03;10425276;28;20037;-78
2023/07/08 18:22:27;;;;;;;6.15;4.05;;;;;;;29.39;56.70;101545.03;10404758;28;20048;-69
2023/07/08 18:27:28;;;;;;;8.05;4.50;;;;;;;29.14;58.57;101548.03;10441209;28;20063;-72
2023/07/08 18:32:28;;;;;;;5.07;3.50;;;;;;;28.93;58.77;101533.28;10428409;28;20033;-64
2023/07/08 18:37:29;;;;;;;5.50;3.83;;;;;;;28.85;60.35;101551.28;10423009;28;20485;-69
2023/07/08 18:42:29;;;;;;;5.78;3.95;;;;;;;28.61;61.87;101555.91;10439630;28;20021;-76
2023/07/08 18:47:29;;;;;;;9.27;4.10;;;;;;;28.27;62.33;101549.63;10439541;28;20044;-77
2023/07/08 18:52:30;;;;;;;6.43;3.92;;;;;;;28.20;64.49;101572.09;10391391;28;20055;-75
2023/07/08 18:57:32;;;;;;;9.93;4.38;;;;;;;28.03;66.12;101580.84;10411344;28;20037;-73
2023/07/08 19:02:37;;;;;;;8.02;4.10;;;;;;;27.80;66.15;101584.13;10437900;28;20076;-68
2023/07/08 19:07:37;;;;;;;6.05;3.88;;;;;;;27.50;68.19;101581.56;10438074;28;20037;-69
2023/07/08 19:12:38;;;;;;;4.63;3.42;;;;;;;27.26;69.96;101587.22;10421955;28;20033;-70
2023/07/08 19:17:38;;;;;;;6.32;4.22;;;;;;;26.97;71.85;101584.16;10425639;28;20037;-70
2023/07/08 19:22:39;;;;;;;6.25;3.65;;;;;;;26.75;74.39;101591.06;10439006;28;20033;-81
2023/07/08 19:27:39;;;;;;;7.25;3.92;;;;;;;26.51;73.99;101613.53;10421144;28;20044;-75
2023/07/08 19:32:48;;;;;;;5.13;3.72;;;;;;;26.34;74.50;101615.31;10407903;28;20543;-67
2023/07/08 19:37:48;;;;;;;6.35;3.75;;;;;;;26.15;77.51;101617.81;10428596;28;20056;-68
2023/07/08 19:42:50;;;;;;;6.97;4.78;;;;;;;25.95;78.84;101625.88;10438494;28;20099;-68
2023/07/08 19:47:51;;;;;;;6.07;3.75;;;;;;;25.75;80.49;101643.53;10407988;28;20041;-66
2023/07/08 19:52:52;;;;;;;9.00;4.40;;;;;;;25.62;82.78;101644.63;10456002;28;20056;-67
2023/07/08 19:57:55;;;;;;;7.03;4.10;;;;;;;25.38;85.06;101643.19;10437303;28;20048;-68
2023/07/08 20:02:57;;;;;;;7.18;4.00;;;;;;;25.18;86.58;101642.75;10421406;28;20129;-68
2023/07/08 20:08:19;;;;;;;8.27;4.05;;;;;;;25.14;87.54;101655.84;10437166;28;20033;-68
2023/07/08 20:13:22;;;;;;;6.60;4.20;;;;;;;25.03;89.10;101670.59;10455488;28;20037;-68
2023/07/08 20:18:31;;;;;;;7.47;4.40;;;;;;;24.88;91.63;101678.41;10456284;28;20037;-68
2023/07/08 20:23:36;;;;;;;5.82;3.80;;;;;;;24.74;93.17;101670.16;10437445;28;20045;-67
2023/07/08 20:28:37;;;;;;;9.43;4.20;;;;;;;24.61;93.07;101679.56;10454808;28;20033;-67
2023/07/08 20:33:38;;;;;;;9.98;4.60;;;;;;;24.50;95.51;101678.25;10408784;28;20351;-67
2023/07/08 20:38:38;;;;;;;7.05;4.45;;;;;;;24.40;97.27;101690.63;10394397;28;20580;-68
2023/07/08 20:43:39;;;;;;;7.63;4.45;;;;;;;24.29;98.10;101683.63;10390268;28;20041;-67
2023/07/08 20:48:39;;;;;;;9.18;4.63;;;;;;;24.15;99.08;101683.78;10420969;28;20033;-69
2023/07/08 20:53:40;;;;;;;6.20;4.13;;;;;;;24.03;99.60;101692.84;10443618;28;20056;-68
2023/07/08 20:58:40;;;;;;;7.13;4.15;;;;;;;23.92;100.00;101697.13;10412557;28;20053;-68
2023/07/08 21:03:44;;;;;;;5.82;4.20;;;;;;;23.85;100.00;101703.19;10418507;28;20033;-68
2023/07/08 21:08:44;;;;;;;7.25;4.25;;;;;;;23.71;100.00;101685.56;10461197;28;20043;-67
2023/07/08 21:13:45;;;;;;;6.32;4.53;;;;;;;23.68;100.00;101703.09;10443829;28;20072;-67
2023/07/08 21:18:45;;;;;;;8.70;4.93;;;;;;;23.56;100.00;101707.38;10419243;28;20049;-68
2023/07/08 21:23:46;;;;;;;5.15;3.75;;;;;;;23.39;100.00;101692.38;10390895;28;20065;-68
2023/07/08 21:28:48;;;;;;;6.32;4.57;;;;;;;23.31;100.00;101711.66;10402693;28;20030;-68
2023/07/08 21:33:48;;;;;;;10.10;5.05;;;;;;;23.14;100.00;101709.56;10376085;28;20037;-67
2023/07/08 21:38:49;;;;;;;7.13;4.47;;;;;;;22.97;100.00;101704.63;10371396;28;20045;-68
2023/07/08 21:43:50;;;;;;;7.15;4.35;;;;;;;22.91;100.00;101713.50;10345089;28;20049;-68
2023/07/08 21:48:50;;;;;;;6.88;4.70;;;;;;;22.78;100.00;101726.44;10361651;28;20046;-67
2023/07/08 21:53:51;;;;;;;11.55;5.25;;;;;;;22.65;100.00;101727.28;10405060;28;20045;-68
2023/07/08 21:58:52;;;;;;;6.40;4.13;;;;;;;22.51;100.00;101727.31;10417206;28;20097;-68
2023/07/08 22:03:52;;;;;;;6.32;4.13;;;;;;;22.42;100.00;101723.59;10398694;28;20097;-68
2023/07/08 22:08:53;;;;;;;5.95;4.85;;;;;;;22.30;100.00;101732.53;10394655;28;20065;-67
2023/07/08 22:13:57;;;;;;;6.05;4.40;;;;;;;22.20;100.00;101730.78;10413109;28;20045;-67
2023/07/08 22:18:57;;;;;;;7.70;4.80;;;;;;;22.13;100.00;101727.53;10394152;28;20050;-67
2023/07/08 22:23:59;;;;;;;8.73;4.82;;;;;;;22.05;100.00;101725.47;10397638;28;20045;-68
2023/07/08 22:29:00;;;;;;;7.18;4.55;;;;;;;21.96;100.00;101734.59;10407416;28;20037;-68
2023/07/08 22:34:10;;;;;;;10.68;4.93;;;;;;;21.87;100.00;101725.28;10378412;28;20046;-67
2023/07/08 22:39:11;;;;;;;8.18;5.18;;;;;;;21.77;100.00;101731.06;10360946;28;20045;-67
2023/07/08 22:44:13;;;;;;;9.57;5.95;;;;;;;21.53;100.00;101720.84;10372047;28;20429;-67
2023/07/08 22:49:23;;;;;;;8.95;4.55;;;;;;;21.54;100.00;101736.53;10397720;28;20049;-67
2023/07/08 22:54:23;;;;;;;9.98;4.72;;;;;;;21.45;100.00;101735.56;10375263;28;20037;-68
2023/07/08 22:59:24;;;;;;;7.47;4.70;;;;;;;21.38;100.00;101729.50;10379754;28;20516;-67
2023/07/08 23:04:24;;;;;;;9.15;5.55;;;;;;;21.33;100.00;101733.25;10402303;28;20077;-67